createdAt,value
2019-06-27T00:02:00.457Z,23.54
2019-06-27T00:04:30.110Z,23.46
2019-06-27T00:07:04.323Z,23.42
2019-06-27T00:09:34.396Z,23.36
2019-06-27T00:12:04.002Z,23.31
2019-06-27T00:14:36.292Z,23.45
2019-06-27T00:17:06.228Z,23.33
2019-06-27T00:19:38.759Z,23.21
2019-06-27T00:22:10.425Z,23.20
2019-06-27T00:24:40.239Z,23.15
2019-06-27T00:27:10.046Z,23.03
2019-06-27T00:29:40.228Z,23.07
2019-06-27T00:32:09.630Z,22.90
2019-06-27T00:34:39.292Z,22.92
2019-06-27T00:37:10.269Z,22.78
2019-06-27T00:39:39.948Z,22.81
2019-06-27T00:42:12.450Z,22.75
2019-06-27T00:44:43.685Z,22.60
2019-06-27T00:47:17.951Z,22.39
2019-06-27T00:49:47.495Z,22.33
2019-06-27T00:52:17.031Z,22.28
2019-06-27T00:54:47.956Z,22.21
2019-06-27T00:57:18.741Z,22.19
2019-06-27T00:59:49.633Z,22.12
2019-06-27T01:02:20.900Z,22.21
2019-06-27T01:04:53.880Z,22.05
2019-06-27T01:07:26.907Z,22.07
2019-06-27T01:09:57.004Z,22.03
2019-06-27T01:12:27.529Z,21.95
2019-06-27T01:15:00.830Z,21.66
2019-06-27T01:17:34.405Z,21.38
2019-06-27T01:20:09.840Z,21.21
2019-06-27T01:22:39.705Z,20.97
2019-06-27T01:25:12.592Z,20.80
2019-06-27T01:27:44.366Z,20.80
2019-06-27T01:30:15.764Z,20.59
2019-06-27T01:32:45.583Z,20.46
2019-06-27T01:35:15.229Z,20.38
2019-06-27T01:37:45.897Z,20.29
2019-06-27T01:40:16.717Z,20.20
2019-06-27T01:42:47.318Z,20.15
2019-06-27T01:45:25.497Z,20.02
2019-06-27T01:47:55.685Z,19.87
2019-06-27T01:50:27.494Z,19.74
2019-06-27T01:52:57.308Z,19.70
2019-06-27T01:55:27.009Z,19.59
2019-06-27T01:57:56.566Z,19.59
2019-06-27T02:00:27.316Z,19.46
2019-06-27T02:02:56.988Z,19.47
2019-06-27T02:05:27.353Z,19.28
2019-06-27T02:07:58.188Z,19.20
2019-06-27T02:10:30.204Z,19.11
2019-06-27T02:12:59.852Z,18.99
2019-06-27T02:15:29.668Z,18.86
2019-06-27T02:17:59.879Z,18.81
2019-06-27T02:20:30.676Z,18.69
2019-06-27T02:23:00.583Z,18.64
2019-06-27T02:25:32.967Z,18.50
2019-06-27T02:28:04.602Z,18.38
2019-06-27T02:30:44.538Z,18.39
2019-06-27T02:33:14.216Z,18.33
2019-06-27T02:35:43.718Z,18.30
2019-06-27T02:38:13.466Z,18.22
2019-06-27T02:40:44.598Z,18.12
2019-06-27T02:43:14.784Z,18.00
2019-06-27T02:45:45.753Z,17.97
2019-06-27T02:48:18.334Z,17.84
2019-06-27T02:50:47.809Z,17.78
2019-06-27T02:53:17.498Z,17.67
2019-06-27T02:55:47.856Z,17.71
2019-06-27T02:58:29.671Z,17.67
2019-06-27T03:00:48.902Z,17.64
2019-06-27T03:03:18.494Z,17.56
2019-06-27T03:05:48.464Z,17.54
2019-06-27T03:08:18.485Z,17.48
2019-06-27T03:10:48.164Z,17.42
2019-06-27T03:13:17.689Z,17.44
2019-06-27T03:15:47.254Z,17.44
2019-06-27T03:18:16.809Z,17.46
2019-06-27T03:20:46.596Z,17.39
2019-06-27T03:23:16.560Z,17.46
2019-06-27T03:25:46.169Z,17.44
2019-06-27T03:28:15.617Z,17.32
2019-06-27T03:30:45.242Z,17.37
2019-06-27T03:33:15.416Z,17.26
2019-06-27T03:35:44.988Z,17.30
2019-06-27T03:38:14.927Z,17.41
2019-06-27T03:40:44.354Z,17.51
2019-06-27T03:43:14.091Z,17.52
2019-06-27T03:45:51.582Z,17.51
2019-06-27T03:48:22.525Z,17.51
2019-06-27T03:50:56.085Z,17.53
2019-06-27T03:53:23.761Z,17.53
2019-06-27T03:55:56.324Z,17.42
2019-06-27T03:58:26.369Z,17.47
2019-06-27T04:00:58.123Z,17.54
2019-06-27T04:03:30.257Z,17.23
2019-06-27T04:05:59.687Z,17.30
2019-06-27T04:08:32.276Z,17.32
2019-06-27T04:11:03.333Z,17.28
2019-06-27T04:13:32.891Z,17.35
2019-06-27T04:16:02.541Z,17.26
2019-06-27T04:18:32.355Z,17.11
2019-06-27T04:21:02.594Z,17.33
2019-06-27T04:23:32.316Z,17.28
2019-06-27T04:26:02.104Z,17.34
2019-06-27T04:28:31.851Z,17.43
2019-06-27T04:31:01.651Z,17.35
2019-06-27T04:33:31.540Z,17.22
2019-06-27T04:36:01.068Z,17.59
2019-06-27T04:38:30.575Z,18.29
2019-06-27T04:41:00.711Z,17.74
2019-06-27T04:43:30.723Z,17.60
2019-06-27T04:46:00.187Z,17.71
2019-06-27T04:48:32.893Z,17.72
2019-06-27T04:51:02.460Z,17.53
2019-06-27T04:53:32.378Z,17.36
2019-06-27T04:56:02.046Z,17.39
2019-06-27T04:58:31.654Z,17.40
2019-06-27T05:01:01.300Z,17.93
2019-06-27T05:03:31.598Z,17.94
2019-06-27T05:06:01.857Z,17.72
2019-06-27T05:08:31.415Z,17.57
2019-06-27T05:11:00.981Z,17.56
2019-06-27T05:13:32.901Z,18.20
2019-06-27T05:16:02.593Z,18.56
2019-06-27T05:18:32.419Z,19.15
2019-06-27T05:21:02.353Z,19.31
2019-06-27T05:23:31.875Z,20.01
2019-06-27T05:26:01.500Z,20.45
2019-06-27T05:28:31.393Z,19.89
2019-06-27T05:31:01.133Z,20.26
2019-06-27T05:33:31.648Z,20.35
2019-06-27T05:36:02.611Z,20.73
2019-06-27T05:38:32.530Z,20.25
2019-06-27T05:41:02.101Z,20.60
2019-06-27T05:43:32.271Z,20.29
2019-06-27T05:46:01.781Z,20.93
2019-06-27T05:48:31.541Z,20.36
2019-06-27T05:51:01.815Z,21.22
2019-06-27T05:53:32.181Z,21.49
2019-06-27T05:56:01.964Z,20.85
2019-06-27T05:58:31.552Z,21.36
2019-06-27T06:01:01.217Z,21.61
2019-06-27T06:03:31.570Z,21.05
2019-06-27T06:06:01.325Z,20.68
2019-06-27T06:08:31.679Z,20.53
2019-06-27T06:11:02.186Z,21.86
2019-06-27T06:13:31.828Z,22.57
2019-06-27T06:16:01.679Z,21.85
2019-06-27T06:18:31.826Z,22.12
2019-06-27T06:21:01.348Z,22.85
2019-06-27T06:23:30.852Z,23.07
2019-06-27T06:26:00.359Z,23.18
2019-06-27T06:28:29.871Z,23.50
2019-06-27T06:30:59.936Z,23.46
2019-06-27T06:33:32.183Z,22.39
2019-06-27T06:36:01.606Z,22.50
2019-06-27T06:38:31.121Z,23.07
2019-06-27T06:41:00.429Z,23.71
2019-06-27T06:43:30.108Z,22.59
2019-06-27T06:45:59.534Z,22.66
2019-06-27T06:48:30.479Z,23.89
2019-06-27T06:51:02.233Z,23.13
2019-06-27T06:53:32.441Z,22.29
2019-06-27T06:56:01.858Z,22.59
2019-06-27T06:58:31.214Z,23.17
2019-06-27T07:01:02.412Z,23.34
2019-06-27T07:03:32.254Z,25.01
2019-06-27T07:06:02.541Z,23.91
2019-06-27T07:08:32.154Z,23.94
2019-06-27T07:11:01.681Z,24.73
2019-06-27T07:13:31.672Z,25.67
2019-06-27T07:16:01.055Z,23.73
2019-06-27T07:18:31.554Z,23.74
2019-06-27T07:21:01.484Z,24.55
2019-06-27T07:23:31.269Z,25.23
2019-06-27T07:26:00.955Z,26.82
2019-06-27T07:28:30.542Z,26.05
2019-06-27T07:31:08.259Z,26.07
2019-06-27T07:33:32.345Z,24.66
2019-06-27T07:36:01.779Z,26.00
2019-06-27T07:38:31.707Z,26.00
2019-06-27T07:41:01.677Z,25.73
2019-06-27T07:43:36.313Z,26.14
2019-06-27T07:46:05.716Z,26.14
2019-06-27T07:48:36.966Z,26.78
2019-06-27T07:51:06.313Z,26.25
2019-06-27T07:53:35.766Z,26.25
2019-06-27T07:56:05.461Z,25.28
2019-06-27T07:58:34.869Z,25.64
2019-06-27T08:01:05.866Z,25.74
2019-06-27T08:03:35.578Z,25.92
2019-06-27T08:06:05.023Z,24.50
2019-06-27T08:08:35.879Z,25.03
2019-06-27T08:11:05.876Z,24.16
2019-06-27T08:13:36.024Z,24.83
2019-06-27T08:16:05.528Z,24.84
2019-06-27T08:18:35.492Z,28.05
2019-06-27T08:21:05.996Z,28.05
2019-06-27T08:23:41.441Z,26.85
2019-06-27T08:26:06.964Z,26.90
2019-06-27T08:28:36.759Z,25.66
2019-06-27T08:31:08.227Z,26.56
2019-06-27T08:33:37.689Z,26.66
2019-06-27T08:36:07.116Z,27.06
2019-06-27T08:38:36.748Z,28.15
2019-06-27T08:41:06.877Z,26.93
2019-06-27T08:43:36.441Z,27.80
2019-06-27T08:46:05.847Z,27.35
2019-06-27T08:48:35.214Z,26.36
2019-06-27T08:51:04.677Z,27.62
2019-06-27T08:53:34.198Z,28.09
2019-06-27T08:56:03.555Z,27.30
2019-06-27T08:58:33.315Z,26.27
2019-06-27T09:01:02.862Z,26.79
2019-06-27T09:03:33.459Z,26.67
2019-06-27T09:06:03.021Z,27.52
2019-06-27T09:08:32.921Z,28.02
2019-06-27T09:11:02.519Z,27.40
2019-06-27T09:13:32.121Z,26.29
2019-06-27T09:16:02.380Z,26.79
2019-06-27T09:18:31.821Z,26.10
2019-06-27T09:21:02.141Z,27.40
2019-06-27T09:23:31.989Z,27.17
2019-06-27T09:26:01.526Z,25.58
2019-06-27T09:28:31.530Z,26.31
2019-06-27T09:31:00.952Z,27.61
2019-06-27T09:33:32.046Z,28.91
2019-06-27T09:36:01.621Z,28.07
2019-06-27T09:38:31.572Z,27.58
2019-06-27T09:41:01.213Z,28.25
2019-06-27T09:43:30.778Z,26.98
2019-06-27T09:46:00.359Z,27.65
2019-06-27T09:48:32.640Z,27.88
2019-06-27T09:51:02.435Z,27.49
2019-06-27T09:53:32.088Z,27.96
2019-06-27T09:56:01.565Z,27.37
2019-06-27T09:58:31.034Z,27.65
2019-06-27T10:01:00.562Z,29.24
2019-06-27T10:03:34.512Z,27.91
2019-06-27T10:06:04.025Z,27.42
2019-06-27T10:08:33.451Z,27.59
2019-06-27T10:11:02.867Z,28.81
2019-06-27T10:13:32.865Z,29.57
2019-06-27T10:16:02.525Z,28.66
2019-06-27T10:18:31.807Z,29.45
2019-06-27T10:21:02.007Z,29.79
2019-06-27T10:23:31.416Z,29.15
2019-06-27T10:26:28.509Z,28.85
2019-06-27T10:29:11.869Z,28.16
2019-06-27T10:31:41.487Z,27.52
2019-06-27T10:34:10.940Z,27.45
2019-06-27T10:36:40.341Z,26.70
2019-06-27T10:39:10.032Z,26.97
2019-06-27T10:41:39.362Z,27.36
2019-06-27T10:44:08.719Z,27.10
2019-06-27T10:46:38.184Z,27.42
2019-06-27T10:49:07.684Z,28.15
2019-06-27T10:51:37.065Z,28.84
2019-06-27T10:54:06.538Z,28.49
2019-06-27T10:56:40.217Z,29.35
2019-06-27T10:59:14.765Z,29.86
2019-06-27T11:01:44.963Z,28.19
2019-06-27T11:04:14.413Z,29.18
2019-06-27T11:06:43.940Z,29.17
2019-06-27T11:09:14.745Z,27.78
2019-06-27T11:11:44.737Z,27.39
2019-06-27T11:14:13.987Z,27.58
2019-06-27T11:16:46.081Z,27.67
2019-06-27T11:19:16.337Z,27.13
2019-06-27T11:21:45.808Z,28.03
2019-06-27T11:24:17.443Z,28.10
2019-06-27T11:26:48.985Z,27.56
2019-06-27T11:29:21.559Z,28.23
2019-06-27T11:31:52.730Z,28.53
2019-06-27T11:34:22.424Z,27.78
2019-06-27T11:36:52.662Z,28.42
2019-06-27T11:39:23.483Z,28.58
2019-06-27T11:41:52.982Z,28.56
2019-06-27T11:44:24.184Z,29.06
2019-06-27T11:46:54.528Z,29.05
2019-06-27T11:49:23.908Z,28.56
2019-06-27T11:51:53.984Z,28.88
2019-06-27T11:54:24.091Z,29.92
2019-06-27T11:56:56.466Z,29.96
2019-06-27T11:59:25.760Z,29.67
2019-06-27T12:01:55.212Z,29.36
2019-06-27T12:04:24.516Z,29.86
2019-06-27T12:06:53.854Z,28.71
2019-06-27T12:09:23.253Z,28.45
2019-06-27T12:11:52.762Z,27.83
2019-06-27T12:14:22.412Z,27.60
2019-06-27T12:16:51.830Z,27.96
2019-06-27T12:19:21.407Z,28.66
2019-06-27T12:21:51.493Z,28.43
2019-06-27T12:24:22.510Z,28.27
2019-06-27T12:26:53.763Z,28.33
2019-06-27T12:29:23.655Z,28.81
2019-06-27T12:31:57.159Z,29.11
2019-06-27T12:34:26.811Z,28.82
2019-06-27T12:36:56.235Z,28.93
2019-06-27T12:39:26.030Z,28.97
2019-06-27T12:41:58.012Z,28.60
2019-06-27T12:44:30.849Z,28.46
2019-06-27T12:47:03.149Z,27.65
2019-06-27T12:49:50.004Z,28.67
2019-06-27T12:52:11.511Z,29.05
2019-06-27T12:54:41.183Z,28.39
2019-06-27T12:57:10.740Z,28.74
2019-06-27T12:59:40.965Z,28.31
2019-06-27T13:02:11.714Z,28.45
2019-06-27T13:04:41.953Z,28.69
2019-06-27T13:07:18.059Z,28.91
2019-06-27T13:09:47.622Z,28.84
2019-06-27T13:12:18.325Z,28.39
2019-06-27T13:14:50.554Z,28.17
2019-06-27T13:17:19.165Z,28.19
2019-06-27T13:19:49.308Z,28.19
2019-06-27T13:22:19.137Z,27.77
2019-06-27T13:24:48.530Z,28.57
2019-06-27T13:27:18.567Z,27.94
2019-06-27T13:29:47.917Z,29.04
2019-06-27T13:32:25.134Z,28.25
2019-06-27T13:34:56.857Z,28.90
2019-06-27T13:37:29.918Z,28.35
2019-06-27T13:40:04.651Z,28.31
2019-06-27T13:42:38.660Z,28.75
2019-06-27T13:45:09.077Z,28.60
2019-06-27T13:47:42.430Z,28.15
2019-06-27T13:50:13.515Z,28.33
2019-06-27T13:52:42.998Z,28.42
2019-06-27T13:55:12.736Z,28.29
2019-06-27T13:57:43.717Z,28.14
2019-06-27T14:00:14.098Z,28.19
2019-06-27T14:02:43.660Z,28.19
2019-06-27T14:05:13.654Z,27.74
2019-06-27T14:07:43.225Z,28.67
2019-06-27T14:10:13.291Z,28.77
2019-06-27T14:12:44.837Z,27.89
2019-06-27T14:15:15.324Z,27.82
2019-06-27T14:17:45.138Z,27.84
2019-06-27T14:20:24.239Z,27.84
2019-06-27T14:23:01.687Z,28.12
2019-06-27T14:25:40.808Z,28.68
2019-06-27T14:28:13.066Z,28.45
2019-06-27T14:30:48.871Z,28.19
2019-06-27T14:33:23.340Z,27.76
2019-06-27T14:35:53.331Z,27.52
2019-06-27T14:38:24.011Z,27.60
2019-06-27T14:40:57.217Z,27.77
2019-06-27T14:43:30.760Z,27.61
2019-06-27T14:46:00.600Z,27.20
2019-06-27T14:48:33.681Z,27.20
2019-06-27T14:51:03.534Z,27.53
2019-06-27T14:53:35.456Z,27.77
2019-06-27T14:56:05.240Z,27.50
2019-06-27T14:58:34.896Z,27.94
2019-06-27T15:01:08.495Z,27.55
2019-06-27T15:03:36.293Z,27.47
2019-06-27T15:06:05.651Z,27.52
2019-06-27T15:08:35.908Z,27.52
2019-06-27T15:11:09.343Z,27.07
2019-06-27T15:13:41.335Z,27.26
2019-06-27T15:16:12.681Z,27.69
2019-06-27T15:18:42.861Z,27.60
2019-06-27T15:21:12.845Z,27.41
2019-06-27T15:23:42.410Z,27.41
2019-06-27T15:26:12.765Z,27.59
2019-06-27T15:28:43.799Z,27.67
2019-06-27T15:31:14.192Z,27.72
2019-06-27T15:33:45.096Z,27.70
2019-06-27T15:36:16.029Z,27.83
2019-06-27T15:38:46.083Z,27.65
2019-06-27T15:41:15.566Z,27.62
2019-06-27T15:43:45.465Z,27.74
2019-06-27T15:46:15.811Z,27.74
2019-06-27T15:49:40.252Z,27.53
2019-06-27T15:52:34.624Z,27.01
2019-06-27T15:55:51.047Z,27.35
2019-06-27T15:58:59.404Z,27.54
2019-06-27T16:01:41.373Z,27.23
2019-06-27T16:04:56.201Z,26.68
2019-06-27T16:07:26.662Z,26.81
2019-06-27T16:09:56.220Z,26.87
2019-06-27T16:12:26.412Z,27.02
2019-06-27T16:14:56.034Z,26.92
2019-06-27T16:17:25.624Z,26.62
2019-06-27T16:19:55.643Z,26.91
2019-06-27T16:22:25.541Z,26.78
2019-06-27T16:24:55.343Z,26.76
2019-06-27T16:27:24.950Z,26.51
2019-06-27T16:29:54.446Z,26.84
2019-06-27T16:32:23.922Z,26.89
2019-06-27T16:34:53.577Z,26.81
2019-06-27T16:37:23.169Z,26.47
2019-06-27T16:39:52.728Z,26.31
2019-06-27T16:42:22.502Z,26.85
2019-06-27T16:44:52.096Z,27.00
2019-06-27T16:47:21.597Z,26.67
2019-06-27T16:49:52.158Z,26.36
2019-06-27T16:52:22.280Z,26.74
2019-06-27T16:54:51.728Z,26.73
2019-06-27T16:57:21.202Z,26.53
2019-06-27T16:59:53.257Z,26.41
2019-06-27T17:02:22.923Z,26.50
2019-06-27T17:04:52.434Z,26.52
2019-06-27T17:07:25.036Z,26.68
2019-06-27T17:09:56.240Z,26.78
2019-06-27T17:12:32.173Z,26.69
2019-06-27T17:15:09.893Z,26.63
2019-06-27T17:17:40.711Z,26.37
2019-06-27T17:20:10.772Z,26.44
2019-06-27T17:22:41.796Z,26.32
2019-06-27T17:25:21.357Z,26.48
2019-06-27T17:27:51.467Z,26.46
2019-06-27T17:30:22.520Z,26.65
2019-06-27T17:32:52.251Z,26.07
2019-06-27T17:35:25.891Z,26.09
2019-06-27T17:37:55.597Z,25.80
2019-06-27T17:40:27.834Z,25.68
2019-06-27T17:42:57.489Z,25.81
2019-06-27T17:45:27.073Z,25.66
2019-06-27T17:47:59.520Z,25.77
2019-06-27T17:50:29.164Z,25.77
2019-06-27T17:52:59.133Z,25.62
2019-06-27T17:55:29.330Z,25.43
2019-06-27T17:57:58.944Z,25.48
2019-06-27T18:00:29.943Z,25.14
2019-06-27T18:02:59.869Z,25.21
2019-06-27T18:05:35.444Z,25.34
2019-06-27T18:08:06.228Z,25.30
2019-06-27T18:10:35.831Z,25.43
2019-06-27T18:13:05.433Z,25.45
2019-06-27T18:15:35.080Z,25.16
2019-06-27T18:18:08.550Z,24.92
2019-06-27T18:20:38.583Z,24.71
2019-06-27T18:23:12.037Z,24.66
2019-06-27T18:25:41.706Z,24.54
2019-06-27T18:28:15.764Z,24.67
2019-06-27T18:30:45.403Z,24.53
2019-06-27T18:33:14.934Z,24.04
2019-06-27T18:35:44.549Z,24.13
2019-06-27T18:38:14.138Z,24.08
2019-06-27T18:40:43.770Z,23.98
2019-06-27T18:43:13.951Z,24.00
2019-06-27T18:45:44.091Z,24.08
2019-06-27T18:48:13.842Z,23.87
2019-06-27T18:50:43.283Z,23.65
2019-06-27T18:53:13.977Z,23.54
2019-06-27T18:55:43.578Z,23.47
2019-06-27T18:58:13.187Z,23.44
2019-06-27T19:00:43.438Z,23.36
2019-06-27T19:03:13.371Z,23.27
2019-06-27T19:05:42.976Z,22.92
2019-06-27T19:08:12.811Z,22.69
2019-06-27T19:10:42.531Z,22.41
2019-06-27T19:13:12.591Z,22.31
2019-06-27T19:15:42.351Z,22.05
2019-06-27T19:18:31.173Z,21.95
2019-06-27T19:21:05.473Z,21.88
2019-06-27T19:23:44.771Z,21.79
2019-06-27T19:26:19.183Z,21.66
2019-06-27T19:28:48.925Z,21.60
2019-06-27T19:31:18.602Z,21.54
2019-06-27T19:33:48.687Z,21.36
2019-06-27T19:36:19.111Z,21.26
2019-06-27T19:38:53.306Z,21.16
2019-06-27T19:41:27.710Z,21.10
2019-06-27T19:44:00.109Z,21.10
2019-06-27T19:46:35.179Z,21.03
2019-06-27T19:49:15.764Z,20.92
2019-06-27T19:51:49.430Z,20.86
2019-06-27T19:54:21.703Z,20.87
2019-06-27T19:56:59.448Z,20.73
2019-06-27T19:59:43.046Z,20.58
2019-06-27T20:02:08.722Z,20.56
2019-06-27T20:04:53.149Z,20.52
2019-06-27T20:07:26.579Z,20.36
2019-06-27T20:09:57.118Z,20.20
2019-06-27T20:12:28.739Z,20.17
2019-06-27T20:15:04.882Z,20.16
2019-06-27T20:17:35.178Z,20.00
2019-06-27T20:20:15.478Z,19.93
2019-06-27T20:22:47.500Z,19.87
2019-06-27T20:25:20.069Z,19.78
2019-06-27T20:28:01.421Z,19.78
2019-06-27T20:30:31.148Z,19.70
2019-06-27T20:33:01.450Z,19.55
2019-06-27T20:35:33.038Z,19.54
2019-06-27T20:38:05.905Z,19.45
2019-06-27T20:40:40.220Z,19.43
2019-06-27T20:43:10.019Z,19.41
2019-06-27T20:45:42.923Z,19.30
2019-06-27T20:48:23.272Z,19.27
2019-06-27T20:51:03.931Z,19.20
2019-06-27T20:53:37.523Z,19.13
2019-06-27T20:56:12.161Z,19.08
2019-06-27T20:58:44.379Z,18.95
2019-06-27T21:01:14.648Z,18.95
2019-06-27T21:03:52.740Z,18.83
2019-06-27T21:06:23.490Z,18.82
2019-06-27T21:08:57.867Z,18.76
2019-06-27T21:11:27.858Z,18.70
2019-06-27T21:14:00.566Z,18.57
2019-06-27T21:16:33.158Z,18.52
2019-06-27T21:19:05.330Z,18.42
2019-06-27T21:21:46.819Z,18.35
2019-06-27T21:24:31.134Z,18.34
2019-06-27T21:27:12.114Z,18.22
2019-06-27T21:29:53.117Z,18.16
2019-06-27T21:32:31.809Z,18.08
2019-06-27T21:35:01.081Z,18.04
2019-06-27T21:37:30.434Z,17.94
2019-06-27T21:40:01.481Z,17.93
2019-06-27T21:42:31.243Z,17.88
2019-06-27T21:45:02.650Z,17.83
2019-06-27T21:47:33.135Z,17.79
2019-06-27T21:50:03.529Z,17.69
2019-06-27T21:52:35.652Z,17.64
2019-06-27T21:55:10.156Z,17.59
2019-06-27T21:57:41.019Z,17.51
2019-06-27T22:00:18.001Z,17.46
2019-06-27T22:02:47.664Z,17.46
2019-06-27T22:05:20.154Z,17.39
2019-06-27T22:07:53.525Z,17.32
2019-06-27T22:10:23.441Z,17.31
2019-06-27T22:12:52.988Z,17.22
2019-06-27T22:15:25.461Z,17.18
2019-06-27T22:17:54.966Z,17.11
2019-06-27T22:20:25.093Z,17.03
2019-06-27T22:22:54.861Z,16.97
2019-06-27T22:25:39.305Z,16.98
2019-06-27T22:27:57.338Z,16.95
2019-06-27T22:30:26.976Z,16.85
2019-06-27T22:32:56.677Z,16.77
2019-06-27T22:35:29.660Z,16.74
2019-06-27T22:38:17.145Z,16.68
2019-06-27T22:41:04.828Z,16.59
2019-06-27T22:43:52.834Z,16.56
2019-06-27T22:46:40.217Z,16.54
2019-06-27T22:49:09.584Z,16.43
2019-06-27T22:51:57.235Z,16.40
2019-06-27T22:54:31.175Z,16.33
2019-06-27T22:57:01.472Z,16.28
2019-06-27T22:59:34.429Z,16.21
2019-06-27T23:02:04.485Z,16.16
2019-06-27T23:04:51.582Z,16.14
2019-06-27T23:07:22.153Z,16.10
2019-06-27T23:09:57.636Z,16.08
2019-06-27T23:12:30.327Z,16.04
2019-06-27T23:15:00.211Z,16.02
2019-06-27T23:17:32.561Z,16.09
2019-06-27T23:20:02.303Z,16.02
2019-06-27T23:22:31.775Z,16.05
2019-06-27T23:25:05.379Z,15.98
2019-06-27T23:27:35.936Z,15.99
2019-06-27T23:30:05.643Z,15.93
2019-06-27T23:32:35.298Z,15.93
2019-06-27T23:35:06.128Z,15.90
2019-06-27T23:37:39.004Z,15.85
2019-06-27T23:40:14.187Z,15.84
2019-06-27T23:42:40.712Z,15.88
2019-06-27T23:45:10.402Z,15.78
2019-06-27T23:47:40.234Z,15.75
2019-06-27T23:50:10.738Z,15.71
2019-06-27T23:52:40.412Z,15.67
2019-06-27T23:55:10.967Z,15.58
2019-06-27T23:57:40.804Z,15.48
